createdAt,value
2022-10-09T00:00:06.279Z,16.70
2022-10-09T00:05:15.441Z,19.48
2022-10-09T00:10:19.356Z,13.38
2022-10-09T00:15:24.588Z,18.17
2022-10-09T00:20:28.374Z,16.15
2022-10-09T00:25:32.230Z,14.57
2022-10-09T00:30:40.342Z,18.50
2022-10-09T00:35:44.236Z,18.17
2022-10-09T00:40:48.012Z,17.12
2022-10-09T00:45:57.635Z,17.27
2022-10-09T00:51:03.171Z,16.73
2022-10-09T00:56:07.317Z,11.27
2022-10-09T01:01:12.414Z,18.25
2022-10-09T01:06:21.520Z,17.90
2022-10-09T01:11:35.762Z,11.32
2022-10-09T01:16:46.564Z,15.48
2022-10-09T01:21:59.260Z,15.80
2022-10-09T01:27:12.066Z,11.98
2022-10-09T01:32:19.807Z,11.45
2022-10-09T01:37:24.376Z,10.63
2022-10-09T01:42:30.824Z,10.40
2022-10-09T01:47:34.719Z,12.90
2022-10-09T01:52:45.200Z,13.30
2022-10-09T01:57:54.723Z,11.02
2022-10-09T02:02:59.078Z,13.02
2022-10-09T02:08:03.515Z,10.20
2022-10-09T02:13:08.832Z,11.18
2022-10-09T02:18:16.035Z,12.32
2022-10-09T02:23:22.752Z,12.32
2022-10-09T02:28:27.958Z,12.60
2022-10-09T02:33:33.303Z,14.80
2022-10-09T02:38:37.077Z,11.05
2022-10-09T02:43:42.158Z,17.23
2022-10-09T02:48:46.398Z,10.27
2022-10-09T02:53:52.228Z,16.80
2022-10-09T02:58:57.548Z,16.73
2022-10-09T03:04:01.675Z,15.02
2022-10-09T03:09:05.534Z,13.27
2022-10-09T03:14:11.292Z,16.77
2022-10-09T03:19:15.033Z,12.73
2022-10-09T03:24:18.807Z,12.80
2022-10-09T03:29:24.043Z,13.07
2022-10-09T03:34:27.732Z,15.65
2022-10-09T03:39:31.593Z,18.08
2022-10-09T03:44:36.654Z,10.70
2022-10-09T03:49:40.388Z,12.73
2022-10-09T03:54:44.112Z,17.52
2022-10-09T03:59:49.209Z,15.55
2022-10-09T04:04:52.950Z,10.00
2022-10-09T04:09:56.733Z,9.05
2022-10-09T04:15:01.892Z,12.50
2022-10-09T04:20:06.051Z,18.80
2022-10-09T04:25:10.493Z,13.07
2022-10-09T04:30:15.854Z,15.07
2022-10-09T04:35:19.634Z,18.00
2022-10-09T04:40:23.350Z,17.52
2022-10-09T04:45:28.500Z,24.45
2022-10-09T04:50:32.235Z,14.05
2022-10-09T04:55:40.190Z,17.23
2022-10-09T05:00:46.860Z,15.45
2022-10-09T05:05:50.705Z,15.20
2022-10-09T05:10:54.443Z,16.33
2022-10-09T05:16:02.428Z,18.55
2022-10-09T05:21:06.697Z,15.20
2022-10-09T05:26:14.234Z,19.95
2022-10-09T05:31:22.344Z,12.53
2022-10-09T05:36:26.133Z,16.30
2022-10-09T05:41:30.495Z,16.42
2022-10-09T05:46:36.099Z,14.68
2022-10-09T05:51:42.696Z,15.45
2022-10-09T05:56:46.541Z,14.23
2022-10-09T06:01:54.541Z,17.48
2022-10-09T06:06:58.438Z,12.37
2022-10-09T06:12:02.188Z,13.95
2022-10-09T06:17:07.245Z,17.27
2022-10-09T06:22:10.958Z,16.83
2022-10-09T06:27:14.737Z,18.83
2022-10-09T06:32:19.828Z,25.58
2022-10-09T06:37:23.670Z,17.08
2022-10-09T06:42:27.383Z,22.42
2022-10-09T06:47:34.950Z,16.33
2022-10-09T06:52:38.805Z,16.67
2022-10-09T06:57:42.726Z,12.82
2022-10-09T07:02:48.207Z,12.95
2022-10-09T07:07:52.164Z,17.75
2022-10-09T07:12:55.979Z,13.35
2022-10-09T07:18:03.559Z,15.35
2022-10-09T07:23:10.092Z,12.10
2022-10-09T07:28:13.950Z,13.18
2022-10-09T07:33:19.050Z,15.88
2022-10-09T07:38:22.926Z,11.20
2022-10-09T07:43:29.719Z,18.20
2022-10-09T07:48:35.342Z,19.02
2022-10-09T07:53:39.661Z,12.10
2022-10-09T07:58:43.609Z,13.93
2022-10-09T08:03:49.327Z,14.60
2022-10-09T08:08:54.491Z,9.30
2022-10-09T08:13:58.988Z,21.15
2022-10-09T08:19:04.893Z,13.45
2022-10-09T08:24:08.701Z,10.52
2022-10-09T08:29:17.060Z,13.57
2022-10-09T08:34:22.100Z,16.58
2022-10-09T08:39:29.514Z,11.65
2022-10-09T08:44:39.479Z,15.57
2022-10-09T08:49:51.474Z,13.57
2022-10-09T08:54:58.291Z,8.93
2022-10-09T09:00:02.110Z,15.43
2022-10-09T09:05:20.618Z,12.27
2022-10-09T09:15:48.090Z,16.67
2022-10-09T09:20:55.620Z,9.75
2022-10-09T09:25:59.945Z,16.27
2022-10-09T09:31:09.623Z,11.48
2022-10-09T09:36:23.343Z,14.07
2022-10-09T09:41:28.976Z,11.32
2022-10-09T09:46:33.744Z,10.05
2022-10-09T09:51:38.913Z,9.05
2022-10-09T10:02:14.398Z,11.70
2022-10-09T10:07:30.217Z,8.30
2022-10-09T10:12:34.275Z,7.72
2022-10-09T10:17:38.635Z,7.07
2022-10-09T10:22:51.709Z,6.60
2022-10-09T10:28:01.838Z,5.68
2022-10-09T10:33:15.335Z,6.10
2022-10-09T10:38:26.584Z,7.93
2022-10-09T10:43:36.951Z,3.37
2022-10-09T10:48:42.889Z,9.80
2022-10-09T10:54:02.518Z,5.35
2022-10-09T10:59:26.212Z,5.45
2022-10-09T11:04:44.248Z,5.18
2022-10-09T11:09:59.098Z,4.87
2022-10-09T11:15:13.607Z,4.12
2022-10-09T11:20:40.184Z,4.10
2022-10-09T11:25:55.236Z,5.10
2022-10-09T11:31:05.149Z,6.15
2022-10-09T11:36:17.202Z,6.30
2022-10-09T11:41:22.953Z,6.90
2022-10-09T11:46:41.430Z,5.37
2022-10-09T11:51:51.811Z,3.33
2022-10-09T11:56:59.220Z,5.60
2022-10-09T12:02:22.994Z,3.47
2022-10-09T12:07:33.189Z,6.97
2022-10-09T12:12:38.996Z,4.90
2022-10-09T12:17:49.852Z,3.67
2022-10-09T12:23:21.716Z,6.43
2022-10-09T12:28:29.112Z,4.57
2022-10-09T12:33:37.861Z,5.35
2022-10-09T12:38:42.456Z,5.68
2022-10-09T12:43:49.121Z,4.12
2022-10-09T12:48:53.094Z,5.07
2022-10-09T12:53:57.077Z,6.20
2022-10-09T12:59:03.140Z,6.07
2022-10-09T13:04:09.457Z,6.25
2022-10-09T13:09:21.432Z,7.53
2022-10-09T13:14:29.624Z,3.90
2022-10-09T13:19:35.357Z,4.32
2022-10-09T13:24:39.192Z,5.07
2022-10-09T13:29:44.763Z,5.90
2022-10-09T13:34:48.529Z,5.12
2022-10-09T13:39:53.577Z,5.55
2022-10-09T13:44:58.814Z,5.20
2022-10-09T13:50:02.632Z,5.07
2022-10-09T13:55:07.309Z,3.25
2022-10-09T14:00:13.815Z,4.20
2022-10-09T14:05:17.781Z,4.62
2022-10-09T14:10:23.882Z,3.67
2022-10-09T14:15:29.277Z,4.10
2022-10-09T14:20:33.339Z,3.58
2022-10-09T14:25:37.221Z,4.05
2022-10-09T14:30:42.922Z,4.75
2022-10-09T14:35:46.758Z,2.58
2022-10-09T14:40:50.569Z,3.10
2022-10-09T14:46:04.121Z,3.60
2022-10-09T14:51:11.379Z,5.03
2022-10-09T14:56:17.365Z,3.67
2022-10-09T15:01:23.511Z,5.05
2022-10-09T15:06:28.214Z,4.10
2022-10-09T15:11:31.908Z,6.50
2022-10-09T15:16:37.318Z,3.62
2022-10-09T15:21:41.352Z,4.87
2022-10-09T15:26:45.023Z,4.40
2022-10-09T15:31:51.876Z,2.97
2022-10-09T15:36:55.669Z,3.72
2022-10-09T15:41:59.365Z,5.85
2022-10-09T15:47:04.488Z,3.65
2022-10-09T15:52:08.268Z,4.93
2022-10-09T15:57:12.029Z,3.92
2022-10-09T16:02:17.236Z,6.07
2022-10-09T16:07:20.980Z,3.60
2022-10-09T16:12:24.692Z,6.12
2022-10-09T16:17:29.777Z,6.78
2022-10-09T16:22:33.788Z,4.97
2022-10-09T16:27:37.656Z,11.40
2022-10-09T16:32:42.764Z,9.48
2022-10-09T16:37:46.605Z,15.77
2022-10-09T16:42:52.829Z,5.15
2022-10-09T16:48:01.469Z,8.32
2022-10-09T16:53:05.396Z,9.18
2022-10-09T16:58:09.252Z,8.98
2022-10-09T17:03:14.280Z,7.90
2022-10-09T17:08:18.105Z,8.52
2022-10-09T17:13:21.970Z,6.75
2022-10-09T17:18:27.100Z,9.85
2022-10-09T17:23:30.955Z,10.88
2022-10-09T17:28:35.453Z,9.63
2022-10-09T17:33:42.799Z,10.38
2022-10-09T17:38:47.304Z,11.30
2022-10-09T17:43:52.311Z,15.20
2022-10-09T17:48:58.506Z,14.00
2022-10-09T17:54:05.972Z,15.30
2022-10-09T17:59:13.943Z,20.17
2022-10-09T18:04:19.013Z,15.35
2022-10-09T18:09:22.871Z,10.50
2022-10-09T18:14:26.632Z,10.60
2022-10-09T18:19:31.817Z,11.35
2022-10-09T18:24:35.642Z,15.77
2022-10-09T18:29:39.401Z,20.20
2022-10-09T18:34:46.595Z,8.63
2022-10-09T18:39:50.727Z,7.40
2022-10-09T18:44:54.602Z,7.50
2022-10-09T18:50:01.799Z,9.10
2022-10-09T18:55:08.508Z,11.02
2022-10-09T19:00:13.853Z,7.32
2022-10-09T19:05:19.102Z,8.10
2022-10-09T19:10:23.088Z,6.75
2022-10-09T19:15:26.787Z,4.97
2022-10-09T19:20:32.398Z,5.95
2022-10-09T19:25:36.214Z,5.05
2022-10-09T19:30:40.356Z,6.68
2022-10-09T19:35:50.113Z,6.97
2022-10-09T19:40:54.438Z,5.40
2022-10-09T19:46:02.772Z,7.72
2022-10-09T19:51:10.353Z,6.12
2022-10-09T19:56:15.843Z,6.00
2022-10-09T20:01:21.339Z,8.88
2022-10-09T20:06:27.305Z,8.27
2022-10-09T20:11:31.028Z,9.25
2022-10-09T20:16:34.979Z,6.12
2022-10-09T20:21:40.215Z,8.10
2022-10-09T20:26:44.047Z,13.43
2022-10-09T20:31:48.794Z,10.88
2022-10-09T20:36:54.427Z,8.07
2022-10-09T20:41:59.619Z,7.25
2022-10-09T20:47:03.497Z,11.65
2022-10-09T20:52:08.642Z,15.88
2022-10-09T20:57:12.357Z,4.40
2022-10-09T21:02:16.676Z,9.40
2022-10-09T21:07:21.835Z,9.73
2022-10-09T21:12:25.582Z,8.07
2022-10-09T21:17:29.365Z,10.52
2022-10-09T21:22:34.793Z,6.05
2022-10-09T21:27:38.579Z,7.45
2022-10-09T21:32:44.565Z,11.00
2022-10-09T21:37:50.377Z,8.20
2022-10-09T21:42:54.044Z,8.57
2022-10-09T21:47:57.918Z,9.35
2022-10-09T21:53:03.223Z,7.10
2022-10-09T21:58:08.108Z,4.72
2022-10-09T22:03:11.836Z,7.37
2022-10-09T22:08:16.913Z,9.10
2022-10-09T22:13:21.740Z,6.95
2022-10-09T22:18:25.508Z,8.23
2022-10-09T22:23:30.717Z,7.30
2022-10-09T22:28:35.400Z,4.90
2022-10-09T22:33:39.331Z,7.62
2022-10-09T22:38:45.751Z,8.55
2022-10-09T22:43:51.205Z,5.68
2022-10-09T22:48:55.066Z,10.73
2022-10-09T22:54:00.836Z,7.28
2022-10-09T22:59:05.445Z,9.05
2022-10-09T23:04:13.047Z,8.30
2022-10-09T23:09:19.004Z,6.10
2022-10-09T23:14:22.717Z,7.78
2022-10-09T23:19:26.432Z,8.68
2022-10-09T23:24:31.484Z,6.18
2022-10-09T23:29:35.279Z,9.73
2022-10-09T23:34:39.034Z,6.87
2022-10-09T23:39:44.115Z,8.60
2022-10-09T23:44:47.826Z,8.00
2022-10-09T23:49:51.575Z,7.43
2022-10-09T23:54:56.616Z,12.60
